createdAt,value
2019-02-18T00:05:37.251Z,27.67
2019-02-18T00:11:39.417Z,23.55
2019-02-18T00:17:41.579Z,26.77
2019-02-18T00:23:43.852Z,21.65
2019-02-18T00:29:45.980Z,27.32
2019-02-18T00:35:48.114Z,30.12
2019-02-18T00:41:50.465Z,25.43
2019-02-18T00:47:52.600Z,25.75
2019-02-18T00:53:54.999Z,22.77
2019-02-18T00:59:57.371Z,22.13
2019-02-18T01:05:59.640Z,23.15
2019-02-18T01:12:03.976Z,25.30
2019-02-18T01:18:06.184Z,29.00
2019-02-18T01:24:08.400Z,25.08
2019-02-18T01:30:12.776Z,20.90
2019-02-18T01:36:15.055Z,25.43
2019-02-18T01:42:17.259Z,24.98
2019-02-18T01:48:19.532Z,23.32
2019-02-18T01:54:21.797Z,21.87
2019-02-18T02:00:23.944Z,21.33
2019-02-18T02:06:26.259Z,20.48
2019-02-18T02:12:28.621Z,16.67
2019-02-18T02:18:31.953Z,18.45
2019-02-18T02:24:34.253Z,25.12
2019-02-18T02:30:36.529Z,25.52
2019-02-18T02:36:38.675Z,20.25
2019-02-18T02:42:40.901Z,20.32
2019-02-18T02:48:43.213Z,19.40
2019-02-18T02:54:45.460Z,21.27
2019-02-18T03:00:47.604Z,20.32
2019-02-18T03:06:49.816Z,19.73
2019-02-18T03:12:51.998Z,23.02
2019-02-18T03:18:54.181Z,21.23
2019-02-18T03:25:20.717Z,25.90
2019-02-18T03:31:25.093Z,19.57
2019-02-18T03:37:27.334Z,21.15
2019-02-18T03:43:29.676Z,23.77
2019-02-18T03:49:31.928Z,22.10
2019-02-18T03:55:34.216Z,17.73
2019-02-18T04:01:36.391Z,19.98
2019-02-18T04:07:38.736Z,20.60
2019-02-18T04:13:40.915Z,21.35
2019-02-18T04:19:43.202Z,25.65
2019-02-18T04:25:48.564Z,19.37
2019-02-18T04:31:50.836Z,24.27
2019-02-18T04:37:53.135Z,22.00
2019-02-18T04:43:55.319Z,28.57
2019-02-18T04:49:57.486Z,37.88
2019-02-18T04:55:59.747Z,31.68
2019-02-18T05:02:02.185Z,23.55
2019-02-18T05:08:04.654Z,25.15
2019-02-18T05:14:06.908Z,28.60
2019-02-18T05:20:09.257Z,25.75
2019-02-18T05:26:11.561Z,41.88
2019-02-18T05:32:15.165Z,27.48
2019-02-18T05:38:17.514Z,28.87
2019-02-18T05:44:19.854Z,25.02
2019-02-18T05:50:22.013Z,38.67
2019-02-18T05:56:24.209Z,24.70
2019-02-18T06:02:26.523Z,26.12
2019-02-18T06:08:28.844Z,29.48
2019-02-18T06:14:32.273Z,37.05
2019-02-18T06:20:34.725Z,39.50
2019-02-18T06:26:36.982Z,60.58
2019-02-18T06:32:39.317Z,48.65
2019-02-18T06:38:41.645Z,34.63
2019-02-18T06:44:45.929Z,33.23
2019-02-18T06:50:48.087Z,46.02
2019-02-18T06:56:55.016Z,37.73
2019-02-18T07:03:02.141Z,30.85
2019-02-18T07:09:21.976Z,21.77
2019-02-18T07:15:24.201Z,19.10
2019-02-18T07:21:26.330Z,25.08
2019-02-18T07:27:28.591Z,22.25
2019-02-18T07:33:30.961Z,21.82
2019-02-18T07:39:35.273Z,23.75
2019-02-18T07:45:37.599Z,30.92
2019-02-18T07:51:40.003Z,20.48
2019-02-18T07:57:42.324Z,17.20
2019-02-18T08:03:45.491Z,22.73
2019-02-18T08:09:48.786Z,26.15
2019-02-18T08:15:50.972Z,22.40
2019-02-18T08:21:53.275Z,19.23
2019-02-18T08:27:55.612Z,18.23
2019-02-18T08:33:57.771Z,13.98
2019-02-18T08:40:00.225Z,11.90
2019-02-18T08:46:07.384Z,14.20
2019-02-18T08:52:10.479Z,16.93
2019-02-18T08:58:12.767Z,17.07
2019-02-18T09:04:15.127Z,17.75
2019-02-18T09:10:17.598Z,15.88
2019-02-18T09:16:19.785Z,17.02
2019-02-18T09:22:26.706Z,12.58
2019-02-18T09:28:29.993Z,14.73
2019-02-18T09:34:32.130Z,13.65
2019-02-18T09:40:44.317Z,15.10
2019-02-18T09:46:40.313Z,16.23
2019-02-18T09:52:43.137Z,15.80
2019-02-18T09:58:45.729Z,14.00
2019-02-18T10:04:48.080Z,16.10
2019-02-18T10:10:55.810Z,11.08
2019-02-18T10:16:54.360Z,15.00
2019-02-18T10:22:56.639Z,18.10
2019-02-18T10:28:59.607Z,14.65
2019-02-18T10:35:02.347Z,15.20
2019-02-18T10:41:07.213Z,14.38
2019-02-18T10:47:08.871Z,12.90
2019-02-18T10:53:11.400Z,17.02
2019-02-18T10:59:13.599Z,13.55
2019-02-18T11:05:15.804Z,17.27
2019-02-18T11:11:18.102Z,19.25
2019-02-18T11:17:20.262Z,13.72
2019-02-18T11:23:22.429Z,19.40
2019-02-18T11:29:24.727Z,20.02
2019-02-18T11:35:27.016Z,18.10
2019-02-18T11:41:29.198Z,17.57
2019-02-18T11:47:31.828Z,17.92
2019-02-18T11:53:34.379Z,26.20
2019-02-18T11:59:36.621Z,22.98
2019-02-18T12:05:38.822Z,20.05
2019-02-18T12:11:40.984Z,22.02
2019-02-18T12:17:43.348Z,23.02
2019-02-18T12:23:45.599Z,24.18
2019-02-18T12:29:47.891Z,23.45
2019-02-18T12:35:50.438Z,21.93
2019-02-18T12:41:53.125Z,19.15
2019-02-18T12:47:55.839Z,23.22
2019-02-18T12:54:04.824Z,19.85
2019-02-18T13:00:03.863Z,19.60
2019-02-18T13:06:06.131Z,19.48
2019-02-18T13:12:08.371Z,17.80
2019-02-18T13:18:10.727Z,18.30
2019-02-18T13:24:12.975Z,18.82
2019-02-18T13:30:15.560Z,18.98
2019-02-18T13:36:17.729Z,18.17
2019-02-18T13:42:19.986Z,17.67
2019-02-18T13:48:22.396Z,21.07
2019-02-18T13:54:24.673Z,25.20
2019-02-18T14:00:27.101Z,19.02
2019-02-18T14:06:29.372Z,19.87
2019-02-18T14:12:32.884Z,23.00
2019-02-18T14:18:36.234Z,24.57
2019-02-18T14:24:38.395Z,27.35
2019-02-18T14:30:40.775Z,23.00
2019-02-18T14:36:43.561Z,18.15
2019-02-18T14:42:45.790Z,16.77
2019-02-18T14:48:49.028Z,20.30
2019-02-18T14:54:51.202Z,15.08
2019-02-18T15:00:54.074Z,11.97
2019-02-18T15:06:57.004Z,12.13
2019-02-18T15:12:59.821Z,13.03
2019-02-18T15:19:01.966Z,14.03
2019-02-18T15:25:05.367Z,13.65
2019-02-18T15:31:08.056Z,10.48
2019-02-18T15:37:10.307Z,10.60
2019-02-18T15:43:13.077Z,11.00
2019-02-18T15:49:17.215Z,13.38
2019-02-18T15:55:19.736Z,11.83
2019-02-18T16:01:23.019Z,11.00
2019-02-18T16:07:26.235Z,10.20
2019-02-18T16:13:28.691Z,11.57
2019-02-18T16:19:31.388Z,13.93
2019-02-18T16:25:33.758Z,13.45
2019-02-18T16:31:36.615Z,11.78
2019-02-18T16:37:39.239Z,20.70
2019-02-18T16:43:41.474Z,51.37
2019-02-18T16:49:48.227Z,181.52
2019-02-18T16:55:50.510Z,120.15
2019-02-18T17:01:52.832Z,115.97
2019-02-18T17:07:56.112Z,36.90
2019-02-18T17:14:05.618Z,22.67
2019-02-18T17:20:07.945Z,15.60
2019-02-18T17:26:10.171Z,14.65
2019-02-18T17:32:12.480Z,13.88
2019-02-18T17:38:16.186Z,15.60
2019-02-18T17:44:20.436Z,15.53
2019-02-18T17:50:23.626Z,14.28
2019-02-18T17:56:26.030Z,19.37
2019-02-18T18:02:29.854Z,20.97
2019-02-18T18:08:32.120Z,21.12
2019-02-18T18:14:34.339Z,23.57
2019-02-18T18:20:36.539Z,21.93
2019-02-18T18:26:39.015Z,21.50
2019-02-18T18:32:41.328Z,21.57
2019-02-18T18:38:43.599Z,25.60
2019-02-18T18:44:45.821Z,29.40
2019-02-18T18:50:49.156Z,28.67
2019-02-18T18:56:52.523Z,40.08
2019-02-18T19:02:57.968Z,95.28
2019-02-18T19:09:00.253Z,119.15
2019-02-18T19:15:03.800Z,183.10
2019-02-18T19:21:05.951Z,45.78
2019-02-18T19:27:08.348Z,77.42
2019-02-18T19:33:10.564Z,54.10
2019-02-18T19:39:12.837Z,38.45
2019-02-18T19:45:17.629Z,39.80
2019-02-18T19:51:19.900Z,39.20
2019-02-18T19:57:23.233Z,39.60
2019-02-18T20:03:26.832Z,39.35
2019-02-18T20:09:29.147Z,34.60
2019-02-18T20:15:31.507Z,31.70
2019-02-18T20:21:33.715Z,33.80
2019-02-18T20:27:36.091Z,41.10
2019-02-18T20:33:38.809Z,37.65
2019-02-18T20:39:42.759Z,36.93
2019-02-18T20:45:44.977Z,32.70
2019-02-18T20:51:47.279Z,34.30
2019-02-18T20:57:49.535Z,32.70
2019-02-18T21:03:51.840Z,36.75
2019-02-18T21:09:55.561Z,37.50
2019-02-18T21:15:57.749Z,45.52
2019-02-18T21:22:00.157Z,46.40
2019-02-18T21:28:02.390Z,34.53
2019-02-18T21:34:04.532Z,36.50
2019-02-18T21:40:07.562Z,33.60
2019-02-18T21:46:10.048Z,39.98
2019-02-18T21:52:12.670Z,36.03
2019-02-18T21:58:15.006Z,37.53
2019-02-18T22:04:18.057Z,32.33
2019-02-18T22:10:20.473Z,34.65
2019-02-18T22:16:22.724Z,34.18
2019-02-18T22:22:24.888Z,36.03
2019-02-18T22:28:27.362Z,29.50
2019-02-18T22:34:30.594Z,34.08
2019-02-18T22:40:32.741Z,34.48
2019-02-18T22:46:35.024Z,32.48
2019-02-18T22:52:37.672Z,38.80
2019-02-18T22:58:39.864Z,37.90
2019-02-18T23:04:42.896Z,33.02
2019-02-18T23:10:45.043Z,35.55
2019-02-18T23:16:47.294Z,31.37
2019-02-18T23:22:51.019Z,34.80
2019-02-18T23:28:53.275Z,34.08
2019-02-18T23:34:55.400Z,31.37
2019-02-18T23:40:57.696Z,30.37
2019-02-18T23:46:59.903Z,31.68
2019-02-18T23:53:02.102Z,29.95
2019-02-18T23:59:04.262Z,26.30
